Time;durP1;ratioP1;P1;durP2;ratioP2;P2;SDS_P1;SDS_P2;PMS_P1;PMS_P2;Temp;Humidity;BMP_temperature;BMP_pressure;BME280_temperature;BME280_humidity;BME280_pressure;Samples;Min_cycle;Max_cycle;Signal;HPM_P1;HPM_P2
2022/03/22 00:01:48;;;;;;;30.85;24.23;;;15.50;72.80;;;;;;5033962;28;20532;-56
2022/03/22 00:04:14;;;;;;;32.10;24.23;;;15.50;72.70;;;;;;5033782;28;20041;-55
2022/03/22 00:06:41;;;;;;;31.92;25.50;;;15.50;72.80;;;;;;5033491;28;20386;-56
2022/03/22 00:09:07;;;;;;;35.75;25.35;;;15.50;72.90;;;;;;5034078;28;20030;-58
2022/03/22 00:11:33;;;;;;;31.45;24.05;;;15.50;72.90;;;;;;5033374;28;20079;-56
2022/03/22 00:13:59;;;;;;;29.83;23.35;;;15.40;72.80;;;;;;5033837;28;20018;-58
2022/03/22 00:16:24;;;;;;;31.10;24.75;;;15.40;72.90;;;;;;5033472;28;20155;-60
2022/03/22 00:18:50;;;;;;;31.92;24.63;;;15.50;72.80;;;;;;5033770;28;20028;-62
2022/03/22 00:21:18;;;;;;;34.65;26.20;;;15.40;72.60;;;;;;5033598;28;20056;-58
2022/03/22 00:23:43;;;;;;;37.53;26.13;;;15.50;72.60;;;;;;5033638;28;20025;-61
2022/03/22 00:26:09;;;;;;;32.08;24.67;;;15.50;72.60;;;;;;5033151;28;20060;-54
2022/03/22 00:28:35;;;;;;;31.80;24.40;;;15.40;72.70;;;;;;5033228;28;20041;-55
2022/03/22 00:31:02;;;;;;;27.92;24.75;;;15.50;72.70;;;;;;5033167;28;20103;-55
2022/03/22 00:33:28;;;;;;;29.02;24.17;;;15.50;72.80;;;;;;5033443;28;20083;-55
2022/03/22 00:35:53;;;;;;;30.95;23.13;;;15.40;72.80;;;;;;5033311;28;20033;-55
2022/03/22 00:38:20;;;;;;;32.22;24.60;;;15.40;73.10;;;;;;5033299;28;20026;-56
2022/03/22 00:40:47;;;;;;;31.73;23.88;;;15.30;73.20;;;;;;5033063;28;20037;-57
2022/03/22 00:43:12;;;;;;;28.73;22.10;;;15.40;73.30;;;;;;5033207;28;20105;-56
2022/03/22 00:45:39;;;;;;;25.25;22.58;;;15.30;73.40;;;;;;5032986;28;20128;-57
2022/03/22 00:48:08;;;;;;;29.65;23.08;;;15.20;73.60;;;;;;5033210;28;20397;-54
2022/03/22 00:50:35;;;;;;;28.85;23.65;;;15.20;73.80;;;;;;5033248;28;20036;-54
2022/03/22 00:53:04;;;;;;;29.60;21.80;;;15.20;73.90;;;;;;5033129;28;20048;-54
2022/03/22 00:55:30;;;;;;;24.90;21.52;;;15.10;73.90;;;;;;5032909;28;20037;-55
2022/03/22 00:57:56;;;;;;;29.33;22.25;;;15.20;73.80;;;;;;5033147;28;20473;-63
2022/03/22 01:00:24;;;;;;;28.23;21.92;;;15.10;73.80;;;;;;5033032;28;20143;-67
2022/03/22 01:02:51;;;;;;;27.65;22.98;;;15.10;73.90;;;;;;5033075;28;20240;-66
2022/03/22 01:05:20;;;;;;;28.08;22.10;;;15.10;73.80;;;;;;5032722;28;20568;-67
2022/03/22 01:07:53;;;;;;;28.80;22.63;;;15.10;73.90;;;;;;5032927;28;20036;-67
2022/03/22 01:10:20;;;;;;;27.77;22.25;;;15.10;73.80;;;;;;5032821;28;20045;-66
2022/03/22 01:12:47;;;;;;;24.58;21.30;;;15.10;74.40;;;;;;5032930;28;20037;-68
2022/03/22 01:15:18;;;;;;;29.67;22.98;;;15.10;73.70;;;;;;5032958;28;20105;-67
2022/03/22 01:17:45;;;;;;;25.83;22.73;;;15.00;73.90;;;;;;5032650;28;20024;-66
2022/03/22 01:20:11;;;;;;;26.30;23.40;;;15.00;73.90;;;;;;5032693;28;20100;-67
2022/03/22 01:22:45;;;;;;;25.80;22.83;;;15.00;74.10;;;;;;5032741;28;20025;-68
2022/03/22 01:25:15;;;;;;;24.52;21.92;;;15.00;74.20;;;;;;5032286;28;20029;-60
2022/03/22 01:27:42;;;;;;;25.38;21.55;;;15.00;74.30;;;;;;5032640;28;20029;-60
2022/03/22 01:30:10;;;;;;;25.50;22.25;;;14.90;74.50;;;;;;5032783;28;20017;-59
2022/03/22 01:32:36;;;;;;;26.35;22.25;;;15.00;74.30;;;;;;5032661;28;20033;-56
2022/03/22 01:35:04;;;;;;;25.02;21.85;;;15.00;74.30;;;;;;5033976;28;20367;-57
2022/03/22 01:37:30;;;;;;;25.65;21.83;;;14.90;74.40;;;;;;5036345;28;20441;-55
2022/03/22 01:39:56;;;;;;;26.73;22.27;;;14.90;74.40;;;;;;5036411;28;20097;-57
2022/03/22 01:42:22;;;;;;;26.98;23.65;;;14.90;74.30;;;;;;5036340;28;20096;-61
2022/03/22 01:44:51;;;;;;;26.98;22.55;;;14.90;74.40;;;;;;5036437;28;20463;-58
2022/03/22 01:47:20;;;;;;;25.35;21.48;;;14.90;74.40;;;;;;5036304;28;20534;-59
2022/03/22 01:49:47;;;;;;;30.10;21.30;;;14.90;74.40;;;;;;5036294;28;20065;-55
2022/03/22 01:52:19;;;;;;;26.05;21.45;;;14.80;74.50;;;;;;5036377;28;20031;-57
2022/03/22 01:54:49;;;;;;;;;;;14.80;74.50;;;;;;5036321;28;20071;-57
2022/03/22 01:57:19;;;;;;;26.10;20.77;;;14.80;74.40;;;;;;5035908;28;19912;-53
2022/03/22 01:59:45;;;;;;;26.40;21.60;;;14.70;74.70;;;;;;5036174;28;20045;-57
2022/03/22 02:07:41;;;;;;;24.88;22.15;;;14.70;74.80;;;;;;5035692;28;20044;-55
2022/03/22 02:10:07;;;;;;;25.13;21.30;;;14.70;75.00;;;;;;5036028;28;20041;-54
2022/03/22 02:12:33;;;;;;;24.85;21.48;;;14.70;74.90;;;;;;5035943;28;20026;-55
2022/03/22 02:14:58;;;;;;;25.85;21.00;;;14.70;75.00;;;;;;5018143;28;20021;-56
2022/03/22 02:17:24;;;;;;;24.27;21.67;;;14.70;75.00;;;;;;5035839;28;20030;-57
2022/03/22 02:19:50;;;;;;;29.42;23.45;;;14.70;75.10;;;;;;5035741;28;20458;-57
2022/03/22 02:22:18;;;;;;;26.52;22.38;;;14.60;75.10;;;;;;5035731;28;20459;-61
2022/03/22 02:24:44;;;;;;;26.92;22.85;;;14.60;75.00;;;;;;5035839;28;20053;-64
2022/03/22 02:27:10;;;;;;;26.85;22.15;;;14.60;75.10;;;;;;5035711;28;20034;-64
2022/03/22 02:29:35;;;;;;;23.67;21.20;;;14.60;75.10;;;;;;5035253;28;20078;-61
2022/03/22 02:32:07;;;;;;;26.27;22.35;;;14.60;75.20;;;;;;5035748;28;20486;-67
2022/03/22 02:34:36;;;;;;;26.63;22.27;;;14.60;75.10;;;;;;5035384;28;20029;-66
2022/03/22 02:37:04;;;;;;;24.50;21.90;;;14.60;75.10;;;;;;5035588;28;20025;-67
2022/03/22 02:39:31;;;;;;;23.70;20.80;;;14.50;75.10;;;;;;5035369;28;20029;-67
2022/03/22 02:41:57;;;;;;;29.02;21.65;;;14.50;75.30;;;;;;5035270;28;20017;-68
2022/03/22 02:44:22;;;;;;;26.75;20.70;;;14.50;75.20;;;;;;5035280;28;20113;-62
2022/03/22 02:46:48;;;;;;;23.83;20.67;;;14.50;75.20;;;;;;5034051;28;20116;-68
2022/03/22 02:49:14;;;;;;;26.25;21.73;;;14.50;75.10;;;;;;5035210;28;20096;-59
2022/03/22 02:51:40;;;;;;;27.55;21.70;;;14.50;75.30;;;;;;5034798;28;20029;-60
2022/03/22 02:54:07;;;;;;;24.80;20.75;;;14.50;75.50;;;;;;5035162;28;20391;-60
2022/03/22 02:56:33;;;;;;;24.25;21.45;;;14.50;75.30;;;;;;5035114;28;20104;-60
2022/03/22 02:58:59;;;;;;;28.25;22.73;;;14.50;75.40;;;;;;5035094;28;20101;-68
2022/03/22 03:01:24;;;;;;;25.50;20.98;;;14.50;75.30;;;;;;5035082;28;20022;-61
2022/03/22 03:03:50;;;;;;;25.85;20.35;;;14.60;75.00;;;;;;5034725;28;20045;-68
2022/03/22 03:06:16;;;;;;;22.45;19.45;;;14.50;74.80;;;;;;5034658;28;20041;-68
2022/03/22 03:08:42;;;;;;;22.90;19.70;;;14.50;75.10;;;;;;5035009;28;20083;-67
2022/03/22 03:11:08;;;;;;;23.70;20.15;;;14.50;74.90;;;;;;5034838;28;20032;-67
2022/03/22 03:16:18;;;;;;;24.10;19.73;;;14.50;74.80;;;;;;5034733;28;20052;-67
2022/03/22 03:18:44;;;;;;;22.13;19.63;;;14.40;74.80;;;;;;5034918;28;20018;-68
2022/03/22 03:21:10;;;;;;;22.08;19.63;;;14.50;74.70;;;;;;5034508;28;20029;-68
2022/03/22 03:23:35;;;;;;;23.10;19.77;;;14.50;74.60;;;;;;5034739;28;20037;-62
2022/03/22 03:26:01;;;;;;;22.83;18.90;;;14.50;74.60;;;;;;5034315;28;20048;-55
2022/03/22 03:28:26;;;;;;;23.30;18.27;;;14.50;74.60;;;;;;5034449;28;20493;-57
2022/03/22 03:30:52;;;;;;;21.55;19.05;;;14.50;74.30;;;;;;5034337;28;20482;-55
2022/03/22 03:33:17;;;;;;;22.88;19.52;;;14.50;74.30;;;;;;5034421;28;20025;-59
2022/03/22 03:35:43;;;;;;;22.33;19.85;;;14.40;74.50;;;;;;5034054;28;20025;-54
2022/03/22 03:38:10;;;;;;;22.55;19.38;;;14.40;74.40;;;;;;5034644;28;20140;-58
2022/03/22 03:43:20;;;;;;;20.92;18.63;;;14.40;74.40;;;;;;5034329;28;20087;-55
2022/03/22 03:48:29;;;;;;;22.10;18.75;;;14.30;74.40;;;;;;5034096;28;20115;-58
2022/03/22 03:50:55;;;;;;;24.10;18.92;;;14.30;74.20;;;;;;5015779;28;20029;-57
2022/03/22 03:53:20;;;;;;;26.50;19.38;;;14.30;74.20;;;;;;5034137;28;20029;-59
2022/03/22 03:55:46;;;;;;;24.05;18.55;;;14.20;74.50;;;;;;5034060;28;20048;-55
2022/03/22 03:58:11;;;;;;;23.92;18.88;;;14.20;74.30;;;;;;5033421;28;20025;-56
2022/03/22 04:00:37;;;;;;;20.88;18.20;;;14.20;74.30;;;;;;5033755;28;20030;-56
2022/03/22 04:03:02;;;;;;;23.70;18.23;;;14.20;74.10;;;;;;5033906;28;20049;-61
2022/03/22 04:05:28;;;;;;;20.60;17.40;;;14.20;74.10;;;;;;5033449;28;20112;-59
2022/03/22 04:07:53;;;;;;;18.55;16.50;;;14.20;74.20;;;;;;5033681;28;20053;-56
2022/03/22 04:10:19;;;;;;;24.77;17.33;;;14.10;74.00;;;;;;5033469;28;20029;-56
2022/03/22 04:12:44;;;;;;;21.08;17.45;;;14.20;74.10;;;;;;5033785;28;20018;-56
2022/03/22 04:15:10;;;;;;;19.73;17.38;;;14.20;74.00;;;;;;5015929;28;20033;-55
2022/03/22 04:17:38;;;;;;;23.35;18.15;;;14.20;73.90;;;;;;5033532;28;20021;-55
2022/03/22 04:20:04;;;;;;;22.33;17.60;;;14.10;73.90;;;;;;5033309;28;20022;-58
2022/03/22 04:22:30;;;;;;;24.15;18.23;;;14.10;74.00;;;;;;5033358;28;20047;-59
2022/03/22 04:24:55;;;;;;;20.65;17.42;;;14.10;74.00;;;;;;5033561;28;20096;-60
2022/03/22 04:32:49;;;;;;;24.20;17.25;;;14.20;74.60;;;;;;5025762;28;20072;-57
2022/03/22 04:35:18;;;;;;;18.67;16.73;;;14.30;73.40;;;;;;5013605;28;20022;-58
2022/03/22 04:37:44;;;;;;;19.50;17.35;;;14.30;72.80;;;;;;5013458;28;20026;-57
2022/03/22 04:40:10;;;;;;;22.02;17.55;;;14.20;72.70;;;;;;5013316;28;20064;-62
2022/03/22 04:42:36;;;;;;;19.90;16.98;;;14.20;72.70;;;;;;5013521;28;20041;-54
2022/03/22 04:45:03;;;;;;;19.85;17.33;;;14.20;73.40;;;;;;5028337;28;20375;-54
2022/03/22 04:47:29;;;;;;;20.83;17.73;;;14.20;72.70;;;;;;5029379;28;20107;-56
2022/03/22 04:49:54;;;;;;;19.60;17.50;;;14.10;72.80;;;;;;5031782;28;20455;-57
2022/03/22 04:57:49;;;;;;;20.65;17.20;;;14.00;73.00;;;;;;5023889;28;20080;-59
2022/03/22 05:00:15;;;;;;;19.08;16.60;;;14.00;73.10;;;;;;5032817;28;20018;-63
2022/03/22 05:02:40;;;;;;;19.00;16.90;;;14.00;73.10;;;;;;5014700;28;20032;-67
2022/03/22 05:05:06;;;;;;;23.48;17.42;;;14.00;73.00;;;;;;5032793;28;20022;-67
2022/03/22 05:07:32;;;;;;;22.17;17.80;;;14.00;73.10;;;;;;5033015;28;20029;-63
2022/03/22 05:09:57;;;;;;;23.73;18.15;;;14.00;73.10;;;;;;5032369;28;20048;-55
2022/03/22 05:12:23;;;;;;;18.42;16.50;;;13.90;73.20;;;;;;5035992;28;20056;-57
2022/03/22 05:14:50;;;;;;;22.42;16.92;;;13.90;73.20;;;;;;5021328;28;20104;-56
2022/03/22 05:17:21;;;;;;;20.95;17.75;;;14.00;73.10;;;;;;5020714;28;20029;-66
2022/03/22 05:19:49;;;;;;;21.95;16.58;;;13.90;73.10;;;;;;5036739;28;20044;-65
2022/03/22 05:22:15;;;;;;;25.02;16.52;;;13.90;73.20;;;;;;5036532;28;20034;-56
2022/03/22 05:24:41;;;;;;;25.67;17.08;;;13.90;73.20;;;;;;5036705;28;20040;-52
2022/03/22 05:27:07;;;;;;;21.85;17.13;;;13.90;73.30;;;;;;5036394;28;20037;-61
2022/03/22 05:29:33;;;;;;;19.23;16.92;;;13.90;73.30;;;;;;5036512;28;20033;-54
2022/03/22 05:31:58;;;;;;;21.40;16.73;;;13.80;73.30;;;;;;5036201;28;20033;-53
2022/03/22 05:34:24;;;;;;;19.58;16.40;;;13.80;73.20;;;;;;5036360;28;20067;-55
2022/03/22 05:36:49;;;;;;;23.00;17.58;;;13.80;73.30;;;;;;5036397;28;20371;-56
2022/03/22 05:39:15;;;;;;;20.80;16.85;;;13.80;73.20;;;;;;5036444;28;20018;-54
2022/03/22 05:41:41;;;;;;;21.33;16.77;;;13.80;73.30;;;;;;5036561;28;20425;-54
2022/03/22 05:44:06;;;;;;;20.75;15.95;;;13.80;73.10;;;;;;5036315;28;20093;-57
2022/03/22 05:46:34;;;;;;;19.33;16.65;;;13.70;73.00;;;;;;5036038;28;20494;-51
2022/03/22 05:48:59;;;;;;;21.92;16.90;;;13.80;73.00;;;;;;5036451;28;20387;-53
2022/03/22 05:51:25;;;;;;;20.98;16.00;;;13.70;73.00;;;;;;5036274;28;20030;-54
2022/03/22 05:53:50;;;;;;;21.52;16.77;;;13.70;73.10;;;;;;5036043;28;20475;-55
2022/03/22 05:56:16;;;;;;;19.08;15.73;;;13.80;73.10;;;;;;5036149;28;20083;-55
2022/03/22 05:58:43;;;;;;;20.83;16.92;;;13.70;73.00;;;;;;5017995;28;20025;-57
2022/03/22 06:01:08;;;;;;;18.83;16.02;;;13.70;73.10;;;;;;5038055;28;20073;-55
2022/03/22 06:03:34;;;;;;;17.45;15.20;;;13.70;73.00;;;;;;5036037;28;20061;-55
2022/03/22 06:06:00;;;;;;;17.60;15.65;;;13.70;73.00;;;;;;5034843;28;20399;-54
2022/03/22 06:08:27;;;;;;;19.17;15.73;;;13.70;72.90;;;;;;5035969;28;20025;-54
2022/03/22 06:10:52;;;;;;;21.95;16.65;;;13.70;73.00;;;;;;5036098;28;20156;-54
2022/03/22 06:13:18;;;;;;;24.75;16.17;;;13.70;73.10;;;;;;5035861;28;20104;-55
2022/03/22 06:15:44;;;;;;;19.20;16.08;;;13.70;73.10;;;;;;5017556;28;20065;-58
2022/03/22 06:18:11;;;;;;;24.83;16.30;;;13.70;73.00;;;;;;5017293;28;20024;-53
2022/03/22 06:20:41;;;;;;;20.77;15.55;;;13.70;72.80;;;;;;5035594;28;20037;-57
2022/03/22 06:23:10;;;;;;;18.42;15.50;;;13.70;72.90;;;;;;5035574;28;20033;-55
2022/03/22 06:25:35;;;;;;;22.73;15.75;;;13.70;73.10;;;;;;5035626;28;20025;-52
2022/03/22 06:28:03;;;;;;;18.17;15.27;;;13.70;73.00;;;;;;5035312;28;20410;-54
2022/03/22 06:30:29;;;;;;;18.25;14.38;;;13.70;73.00;;;;;;5035594;28;20075;-54
2022/03/22 06:32:56;;;;;;;20.90;15.25;;;13.70;73.30;;;;;;5035683;28;20459;-54
2022/03/22 06:35:24;;;;;;;18.65;16.65;;;13.60;73.10;;;;;;5033945;28;20021;-54
2022/03/22 06:37:51;;;;;;;20.17;15.00;;;13.70;73.10;;;;;;5031795;28;20478;-51
2022/03/22 06:40:18;;;;;;;16.02;14.25;;;13.70;73.10;;;;;;5033650;28;20022;-54
2022/03/22 06:42:44;;;;;;;21.13;15.90;;;13.70;73.20;;;;;;5027073;28;20406;-52
2022/03/22 06:45:11;;;;;;;18.50;15.07;;;13.70;73.20;;;;;;5011546;28;20033;-52
2022/03/22 06:47:39;;;;;;;25.92;15.07;;;13.70;73.70;;;;;;5034385;28;20033;-51
2022/03/22 06:50:07;;;;;;;22.52;15.80;;;13.80;73.30;;;;;;5034252;28;20026;-59
2022/03/22 06:52:32;;;;;;;23.70;16.98;;;13.80;72.60;;;;;;5031520;28;20041;-54
2022/03/22 06:54:58;;;;;;;23.40;16.98;;;13.90;73.10;;;;;;5033362;28;20026;-59
2022/03/22 06:57:24;;;;;;;25.05;15.95;;;13.90;72.90;;;;;;5033626;28;20025;-58
2022/03/22 06:59:49;;;;;;;27.10;16.73;;;13.90;73.50;;;;;;5025010;28;20026;-65
2022/03/22 07:02:18;;;;;;;21.65;15.65;;;13.90;73.60;;;;;;5031348;28;20029;-60
2022/03/22 07:04:44;;;;;;;22.50;15.23;;;14.00;73.00;;;;;;5029578;28;20048;-67
2022/03/22 07:07:09;;;;;;;25.70;15.68;;;14.00;73.50;;;;;;5031641;28;20056;-65
2022/03/22 07:09:35;;;;;;;24.13;16.08;;;14.00;73.10;;;;;;5032441;28;20471;-64
2022/03/22 07:12:01;;;;;;;23.13;15.82;;;14.00;73.20;;;;;;5032616;28;20118;-60
2022/03/22 07:14:28;;;;;;;34.75;18.38;;;14.10;73.10;;;;;;5032578;28;20137;-61
2022/03/22 07:16:54;;;;;;;20.90;16.48;;;14.10;72.50;;;;;;5033736;28;20120;-62
2022/03/22 07:19:22;;;;;;;25.33;15.70;;;14.10;72.70;;;;;;5015180;28;20032;-54
2022/03/22 07:21:49;;;;;;;23.83;15.82;;;14.20;72.80;;;;;;5018300;28;20040;-49
2022/03/22 07:24:16;;;;;;;26.70;16.10;;;14.20;72.50;;;;;;5032058;28;20032;-57
2022/03/22 07:26:42;;;;;;;24.20;17.80;;;14.20;71.90;;;;;;5031948;28;20033;-53
2022/03/22 07:29:09;;;;;;;30.55;17.30;;;14.20;71.60;;;;;;5032803;28;20120;-60
2022/03/22 07:31:38;;;;;;;21.35;17.00;;;14.20;71.60;;;;;;5029569;28;20475;-60
2022/03/22 07:34:12;;;;;;;22.00;16.67;;;14.20;71.80;;;;;;5025977;28;20036;-60
2022/03/22 07:36:39;;;;;;;29.83;17.70;;;14.30;71.90;;;;;;5032224;28;20471;-56
2022/03/22 07:39:09;;;;;;;26.70;16.92;;;14.20;71.90;;;;;;5020558;28;20113;-57
2022/03/22 07:41:36;;;;;;;22.55;16.67;;;14.30;71.90;;;;;;5027395;28;20033;-55
2022/03/22 07:44:03;;;;;;;22.27;15.60;;;14.30;71.50;;;;;;4996666;28;20450;-59
2022/03/22 07:46:30;;;;;;;24.33;18.20;;;14.30;71.50;;;;;;5023305;28;20034;-57
2022/03/22 07:52:58;;;;;;;24.10;17.67;;;14.40;71.90;;;;;;5029248;28;20108;-58
2022/03/22 07:54:26;;;;;;;22.00;14.25;;;14.40;71.70;;;;;;5024094;28;20084;-63
2022/03/22 07:56:51;;;;;;;27.77;17.27;;;14.50;72.20;;;;;;5023997;28;20026;-64
2022/03/22 07:59:17;;;;;;;36.38;15.20;;;14.50;72.70;;;;;;5023183;28;20022;-65
2022/03/22 08:01:42;;;;;;;27.92;17.13;;;14.60;73.50;;;;;;5032778;28;20022;-62
2022/03/22 08:04:08;;;;;;;35.75;19.00;;;14.60;72.60;;;;;;5032551;28;20099;-60
2022/03/22 08:06:33;;;;;;;26.15;16.67;;;14.60;71.90;;;;;;5032332;28;20548;-66
2022/03/22 08:08:59;;;;;;;21.25;16.60;;;14.70;71.20;;;;;;5028187;28;20037;-63
2022/03/22 08:11:24;;;;;;;22.95;16.85;;;14.70;70.50;;;;;;5021825;28;20033;-63
2022/03/22 08:13:50;;;;;;;20.67;15.57;;;14.80;70.80;;;;;;5012509;28;20147;-55
2022/03/22 08:16:15;;;;;;;23.42;15.80;;;14.80;70.30;;;;;;5032731;28;20075;-53
2022/03/22 08:18:41;;;;;;;20.83;15.30;;;14.80;71.30;;;;;;5032068;28;20061;-63
2022/03/22 08:21:07;;;;;;;319.65;52.15;;;14.90;70.30;;;;;;5031409;28;20025;-60
2022/03/22 08:23:32;;;;;;;160.90;33.08;;;14.90;70.50;;;;;;5032094;28;20045;-57
2022/03/22 08:25:58;;;;;;;72.22;23.70;;;14.90;70.20;;;;;;5029252;28;20398;-57
2022/03/22 08:28:24;;;;;;;37.97;17.55;;;14.90;70.20;;;;;;5026079;28;20041;-55
2022/03/22 08:30:50;;;;;;;25.83;15.40;;;15.00;70.10;;;;;;5031619;28;20529;-52
2022/03/22 08:33:17;;;;;;;24.55;16.17;;;15.00;69.30;;;;;;5032569;28;20021;-61
2022/03/22 08:35:46;;;;;;;22.23;15.95;;;15.00;68.90;;;;;;5030462;28;20029;-61
2022/03/22 08:38:13;;;;;;;24.40;16.40;;;15.10;69.10;;;;;;5031625;28;20474;-57
2022/03/22 08:40:39;;;;;;;20.42;14.80;;;15.10;68.60;;;;;;5026768;28;20026;-62
2022/03/22 08:43:07;;;;;;;26.48;16.20;;;15.10;69.20;;;;;;5030100;28;20075;-65
2022/03/22 08:45:34;;;;;;;22.70;16.60;;;15.10;68.00;;;;;;5030282;28;20029;-64
2022/03/22 08:48:02;;;;;;;24.17;15.38;;;15.20;67.60;;;;;;5026174;28;20026;-60
2022/03/22 08:50:28;;;;;;;21.90;14.93;;;15.20;68.50;;;;;;5012796;28;20037;-55
2022/03/22 08:52:56;;;;;;;18.02;14.52;;;15.20;68.60;;;;;;5012006;28;20033;-65
2022/03/22 08:55:23;;;;;;;25.73;15.65;;;15.20;68.90;;;;;;5012818;28;20034;-65
2022/03/22 08:57:49;;;;;;;19.13;15.98;;;15.20;68.00;;;;;;5012748;28;20018;-63
2022/03/22 09:00:17;;;;;;;26.98;17.30;;;15.30;67.90;;;;;;5031994;28;20032;-65
2022/03/22 09:02:47;;;;;;;18.30;13.57;;;15.30;68.20;;;;;;5031969;28;20029;-58
2022/03/22 09:08:00;;;;;;;22.52;15.30;;;15.40;68.60;;;;;;5019936;28;20104;-64
2022/03/22 09:10:27;;;;;;;23.13;16.10;;;15.40;68.50;;;;;;5026850;28;20037;-56
2022/03/22 09:12:53;;;;;;;23.95;15.60;;;15.40;67.60;;;;;;5031828;28;20030;-54
2022/03/22 09:15:20;;;;;;;21.08;11.77;;;15.40;67.40;;;;;;5032044;28;20032;-55
2022/03/22 09:17:46;;;;;;;18.27;14.10;;;15.50;69.80;;;;;;5030135;28;20110;-56
2022/03/22 09:20:13;;;;;;;17.88;13.63;;;15.50;69.00;;;;;;5030470;28;20021;-56
2022/03/22 09:22:40;;;;;;;21.63;17.23;;;15.50;69.40;;;;;;5031694;28;20025;-56
2022/03/22 09:25:07;;;;;;;24.90;16.92;;;15.50;68.10;;;;;;5028872;28;20124;-59
2022/03/22 09:27:33;;;;;;;22.20;14.88;;;15.60;67.70;;;;;;5031197;28;20044;-55
2022/03/22 09:29:58;;;;;;;23.15;16.75;;;15.60;68.30;;;;;;5030782;28;20029;-55
2022/03/22 09:32:24;;;;;;;20.65;15.68;;;15.60;67.90;;;;;;5029982;28;20097;-55
2022/03/22 09:34:49;;;;;;;18.85;13.98;;;15.60;67.80;;;;;;5030826;28;20049;-58
2022/03/22 09:37:16;;;;;;;21.13;14.70;;;15.60;68.40;;;;;;5030343;28;20041;-57
2022/03/22 09:39:48;;;;;;;23.05;16.08;;;15.70;67.70;;;;;;5030730;28;20095;-58
2022/03/22 09:42:15;;;;;;;17.07;12.07;;;15.70;67.90;;;;;;5028618;28;20083;-55
2022/03/22 09:44:42;;;;;;;16.08;12.57;;;15.70;69.90;;;;;;5031451;28;20471;-58
2022/03/22 09:47:10;;;;;;;18.95;13.85;;;15.70;70.40;;;;;;5032514;28;20053;-58
2022/03/22 09:49:38;;;;;;;21.13;14.45;;;15.80;69.00;;;;;;5024231;28;20053;-58
2022/03/22 09:52:04;;;;;;;19.40;14.55;;;15.80;68.60;;;;;;5025397;28;20083;-56
2022/03/22 09:54:29;;;;;;;22.95;16.65;;;15.80;67.30;;;;;;5018853;28;20026;-55
2022/03/22 09:56:55;;;;;;;19.30;14.80;;;15.80;67.10;;;;;;5026442;28;20075;-58
2022/03/22 09:59:21;;;;;;;19.45;13.13;;;15.80;67.00;;;;;;5032110;28;20026;-56
2022/03/22 10:01:46;;;;;;;21.20;13.90;;;15.90;68.50;;;;;;5030982;28;20026;-56
2022/03/22 10:04:14;;;;;;;16.67;13.88;;;15.90;68.80;;;;;;5030114;28;20022;-58
2022/03/22 10:07:03;;;;;;;24.83;15.40;;;15.90;67.60;;;;;;5014330;28;20040;-56
2022/03/22 10:09:39;;;;;;;18.13;10.57;;;15.90;67.60;;;;;;5035212;28;20045;-56
2022/03/22 10:12:07;;;;;;;23.30;14.30;;;16.00;69.30;;;;;;5034638;28;20033;-56
2022/03/22 10:14:41;;;;;;;23.35;16.80;;;15.90;66.90;;;;;;5030553;28;20013;-56
2022/03/22 10:17:15;;;;;;;25.98;18.25;;;16.00;66.30;;;;;;5035592;28;20104;-57
2022/03/22 10:19:42;;;;;;;20.55;13.57;;;16.00;65.70;;;;;;5031827;28;20086;-59
2022/03/22 10:22:10;;;;;;;21.38;16.10;;;16.00;67.60;;;;;;5026103;28;20034;-58
2022/03/22 10:24:53;;;;;;;24.15;16.67;;;16.00;66.10;;;;;;5030061;28;20383;-56
2022/03/22 10:27:27;;;;;;;22.88;16.45;;;16.10;65.50;;;;;;5014944;28;20057;-66
2022/03/22 10:29:54;;;;;;;21.17;15.73;;;16.10;64.50;;;;;;5029494;28;20029;-55
2022/03/22 10:32:40;;;;;;;23.77;15.15;;;16.10;65.80;;;;;;5027156;28;20044;-54
2022/03/22 10:35:14;;;;;;;26.98;18.10;;;16.10;66.30;;;;;;5031739;28;20014;-56
2022/03/22 10:37:51;;;;;;;23.48;17.02;;;16.10;66.20;;;;;;5019412;28;20033;-56
2022/03/22 10:40:25;;;;;;;23.05;15.45;;;16.10;66.10;;;;;;5012982;28;20533;-57
2022/03/22 10:42:52;;;;;;;21.08;14.32;;;16.20;66.50;;;;;;5010829;28;20034;-54
2022/03/22 10:45:18;;;;;;;20.67;15.68;;;16.20;67.10;;;;;;5024385;28;20143;-62
2022/03/22 10:47:45;;;;;;;23.60;15.95;;;16.20;66.70;;;;;;5026409;28;20686;-55
2022/03/22 10:50:11;;;;;;;24.85;17.20;;;16.20;66.60;;;;;;5031385;28;20033;-54
2022/03/22 10:52:51;;;;;;;24.50;14.73;;;16.20;64.70;;;;;;5032694;28;20113;-56
2022/03/22 10:55:20;;;;;;;24.33;18.58;;;16.30;64.40;;;;;;5033280;28;20116;-59
2022/03/22 10:57:51;;;;;;;23.95;17.35;;;16.30;63.00;;;;;;5034092;28;20382;-65
2022/03/22 11:00:17;;;;;;;27.48;18.85;;;16.30;63.40;;;;;;5032107;28;20030;-62
2022/03/22 11:02:47;;;;;;;29.50;17.33;;;16.30;63.70;;;;;;5029266;28;20021;-66
2022/03/22 11:05:15;;;;;;;22.23;15.85;;;16.30;64.00;;;;;;5026895;28;20048;-62
2022/03/22 11:07:41;;;;;;;23.20;18.05;;;16.40;64.70;;;;;;5032015;28;20541;-65
2022/03/22 11:10:08;;;;;;;23.92;17.67;;;16.30;63.50;;;;;;5026296;28;20037;-66
2022/03/22 11:12:35;;;;;;;24.70;17.13;;;16.40;62.80;;;;;;5023113;28;20033;-64
2022/03/22 11:15:03;;;;;;;22.63;14.93;;;16.40;64.00;;;;;;5028728;28;20510;-58
2022/03/22 11:17:34;;;;;;;16.38;11.48;;;16.40;65.70;;;;;;5030764;28;20014;-56
2022/03/22 11:20:05;;;;;;;24.50;16.70;;;16.40;66.90;;;;;;5017925;28;20057;-57
2022/03/22 11:22:32;;;;;;;17.00;12.02;;;16.40;63.60;;;;;;5031961;28;20033;-53
2022/03/22 11:25:08;;;;;;;26.23;16.83;;;16.40;66.20;;;;;;5029365;28;20021;-56
2022/03/22 11:27:34;;;;;;;25.17;17.73;;;16.50;64.20;;;;;;5026191;28;20475;-59
2022/03/22 11:30:00;;;;;;;25.65;17.83;;;16.50;63.20;;;;;;5034032;28;20040;-60
2022/03/22 11:35:14;;;;;;;26.45;17.33;;;16.50;62.20;;;;;;5017998;28;20056;-66
2022/03/22 11:37:40;;;;;;;23.17;16.30;;;16.50;63.10;;;;;;5033814;28;20069;-58
2022/03/22 11:43:01;;;;;;;25.42;18.02;;;16.60;63.30;;;;;;5026657;28;20067;-60
2022/03/22 11:45:26;;;;;;;21.67;16.33;;;16.60;63.10;;;;;;5033279;28;20471;-62
2022/03/22 11:47:54;;;;;;;21.13;13.95;;;16.60;63.30;;;;;;5032197;28;20064;-58
2022/03/22 11:50:22;;;;;;;25.75;16.13;;;16.70;64.70;;;;;;5032402;28;20070;-56
2022/03/22 11:52:54;;;;;;;23.75;16.40;;;16.60;63.40;;;;;;5013740;28;20507;-57
2022/03/22 11:55:25;;;;;;;21.70;13.60;;;16.60;62.40;;;;;;5014343;28;20033;-56
2022/03/22 11:57:51;;;;;;;27.80;15.70;;;16.70;61.40;;;;;;5030670;28;20025;-60
2022/03/22 12:00:17;;;;;;;24.17;15.45;;;16.70;61.20;;;;;;5031834;28;20026;-58
2022/03/22 12:02:45;;;;;;;18.58;13.13;;;16.70;62.10;;;;;;5033555;28;20139;-63
2022/03/22 12:05:11;;;;;;;19.05;13.30;;;16.80;62.10;;;;;;5033072;28;20528;-59
2022/03/22 12:07:38;;;;;;;17.45;10.93;;;16.80;61.40;;;;;;5032719;28;20406;-60
2022/03/22 12:10:07;;;;;;;19.10;11.93;;;16.80;62.40;;;;;;5031556;28;20021;-58
2022/03/22 12:12:33;;;;;;;17.25;12.25;;;16.90;63.40;;;;;;5007433;28;20565;-58
2022/03/22 12:15:05;;;;;;;18.98;12.23;;;16.80;63.50;;;;;;5028456;28;20112;-57
2022/03/22 12:17:30;;;;;;;16.92;12.27;;;16.90;60.80;;;;;;5032330;28;20076;-55
2022/03/22 12:20:01;;;;;;;12.20;9.45;;;16.90;60.80;;;;;;5028468;28;20026;-58
2022/03/22 12:22:28;;;;;;;16.15;9.50;;;16.90;59.90;;;;;;5023105;28;20079;-58
2022/03/22 12:24:57;;;;;;;10.13;7.97;;;16.90;59.40;;;;;;5028229;28;20022;-59
2022/03/22 12:27:23;;;;;;;12.05;9.63;;;16.90;58.70;;;;;;5028634;28;20072;-58
2022/03/22 12:29:49;;;;;;;15.90;10.38;;;16.90;60.00;;;;;;5024577;28;20060;-59
2022/03/22 12:32:17;;;;;;;21.02;11.57;;;16.90;59.70;;;;;;5028069;28;20035;-57
2022/03/22 12:34:43;;;;;;;14.32;9.32;;;17.00;59.20;;;;;;5021114;28;20109;-62
2022/03/22 12:37:11;;;;;;;12.05;8.43;;;17.00;58.20;;;;;;5017005;28;20040;-58
2022/03/22 12:39:38;;;;;;;13.55;9.82;;;17.00;57.50;;;;;;5020919;28;20018;-58
2022/03/22 12:42:05;;;;;;;15.63;9.05;;;17.00;57.70;;;;;;5028992;28;20445;-66
2022/03/22 12:44:31;;;;;;;14.10;10.05;;;17.10;58.20;;;;;;5031017;28;20104;-60
2022/03/22 12:46:57;;;;;;;11.52;8.85;;;17.10;57.50;;;;;;5031119;28;20053;-65
2022/03/22 12:49:24;;;;;;;13.95;8.32;;;17.10;57.00;;;;;;5031352;28;20071;-64
2022/03/22 12:51:50;;;;;;;13.13;8.13;;;17.10;59.50;;;;;;5031028;28;20063;-66
2022/03/22 12:54:19;;;;;;;12.25;8.13;;;17.20;59.70;;;;;;5031082;28;20065;-66
2022/03/22 12:56:48;;;;;;;11.63;8.10;;;17.20;60.50;;;;;;5030894;28;20095;-67
2022/03/22 12:59:18;;;;;;;10.30;7.57;;;17.20;58.10;;;;;;5031799;28;20498;-65
2022/03/22 13:01:44;;;;;;;15.05;8.13;;;17.30;56.70;;;;;;5031735;28;20034;-66
2022/03/22 13:04:09;;;;;;;15.68;8.75;;;17.30;58.00;;;;;;5032674;28;20028;-65